createdAt,value
2022-11-21T00:03:32.594Z,100.00
2022-11-21T00:08:35.669Z,99.95
2022-11-21T00:13:38.129Z,100.00
2022-11-21T00:18:40.317Z,99.82
2022-11-21T00:23:44.193Z,99.90
2022-11-21T00:28:45.940Z,100.00
2022-11-21T00:33:47.809Z,100.00
2022-11-21T00:38:51.576Z,99.90
2022-11-21T00:43:53.332Z,99.98
2022-11-21T00:48:55.408Z,99.99
2022-11-21T00:53:59.023Z,99.39
2022-11-21T00:59:01.060Z,98.80
2022-11-21T01:04:02.776Z,97.68
2022-11-21T01:09:05.986Z,97.53
2022-11-21T01:14:08.226Z,97.61
2022-11-21T01:19:10.509Z,97.55
2022-11-21T01:24:14.284Z,98.35
2022-11-21T01:29:17.431Z,98.00
2022-11-21T01:34:19.594Z,98.23
2022-11-21T01:39:23.314Z,98.66
2022-11-21T01:44:28.028Z,98.33
2022-11-21T01:49:33.212Z,98.20
2022-11-21T01:54:40.237Z,98.48
2022-11-21T01:59:47.920Z,98.70
2022-11-21T02:04:52.088Z,97.95
2022-11-21T02:09:59.551Z,97.95
2022-11-21T02:15:02.316Z,97.55
2022-11-21T02:20:07.147Z,98.32
2022-11-21T02:25:14.127Z,98.18
2022-11-21T02:30:17.379Z,98.32
2022-11-21T02:35:20.335Z,98.52
2022-11-21T02:40:28.386Z,98.84
2022-11-21T02:45:36.031Z,98.48
2022-11-21T02:50:39.795Z,98.66
2022-11-21T02:55:44.142Z,98.67
2022-11-21T03:00:46.199Z,97.93
2022-11-21T03:05:48.185Z,97.89
2022-11-21T03:10:51.444Z,97.87
2022-11-21T03:15:53.170Z,97.20
2022-11-21T03:20:54.963Z,97.08
2022-11-21T03:25:59.120Z,97.56
2022-11-21T03:31:01.243Z,98.17
2022-11-21T03:36:03.428Z,97.20
2022-11-21T03:41:07.574Z,97.35
2022-11-21T03:46:09.682Z,97.81
2022-11-21T03:51:11.866Z,97.91
2022-11-21T03:56:15.712Z,98.29
2022-11-21T04:01:18.529Z,97.94
2022-11-21T04:06:22.481Z,97.51
2022-11-21T04:11:26.102Z,97.58
2022-11-21T04:16:28.359Z,97.48
2022-11-21T04:21:30.358Z,97.31
2022-11-21T04:26:33.587Z,97.44
2022-11-21T04:31:35.648Z,97.81
2022-11-21T04:36:37.974Z,97.86
2022-11-21T04:41:41.230Z,98.05
2022-11-21T04:46:43.129Z,98.99
2022-11-21T04:51:44.985Z,99.14
2022-11-21T04:56:48.668Z,99.37
2022-11-21T05:01:50.793Z,99.36
2022-11-21T05:06:52.985Z,99.40
2022-11-21T05:11:56.027Z,99.85
2022-11-21T05:16:58.234Z,100.00
2022-11-21T05:22:00.405Z,100.00
2022-11-21T05:27:04.144Z,100.00
2022-11-21T05:32:06.354Z,100.00
2022-11-21T05:37:08.355Z,100.00
2022-11-21T05:42:11.922Z,100.00
2022-11-21T05:47:14.989Z,100.00
2022-11-21T05:52:17.158Z,100.00
2022-11-21T05:57:21.024Z,100.00
2022-11-21T06:02:23.082Z,99.31
2022-11-21T06:07:24.931Z,99.14
2022-11-21T06:12:28.439Z,99.19
2022-11-21T06:17:30.550Z,99.03
2022-11-21T06:22:32.631Z,99.47
2022-11-21T06:27:35.763Z,99.42
2022-11-21T06:32:38.567Z,99.71
2022-11-21T06:37:40.833Z,99.56
2022-11-21T06:42:43.981Z,99.78
2022-11-21T06:47:46.213Z,99.37
2022-11-21T06:52:47.947Z,99.39
2022-11-21T06:57:51.838Z,99.07
2022-11-21T07:02:56.552Z,99.04
2022-11-21T07:08:03.090Z,98.94
2022-11-21T07:13:06.129Z,99.11
2022-11-21T07:18:07.825Z,98.81
2022-11-21T07:23:09.458Z,98.87
2022-11-21T07:28:12.930Z,98.61
2022-11-21T07:33:15.071Z,97.35
2022-11-21T07:38:17.061Z,96.75
2022-11-21T07:43:20.632Z,95.88
2022-11-21T07:48:22.549Z,95.48
2022-11-21T07:53:24.607Z,96.41
2022-11-21T07:58:27.930Z,96.62
2022-11-21T08:03:30.255Z,97.90
2022-11-21T08:08:32.435Z,98.31
2022-11-21T08:13:36.156Z,97.61
2022-11-21T08:18:38.460Z,96.52
2022-11-21T08:23:40.412Z,96.91
2022-11-21T08:28:44.206Z,97.14
2022-11-21T08:33:46.306Z,96.78
2022-11-21T08:38:48.315Z,96.31
2022-11-21T08:43:51.721Z,96.24
2022-11-21T08:48:53.924Z,95.31
2022-11-21T08:53:56.077Z,95.97
2022-11-21T08:58:59.533Z,96.15
2022-11-21T09:04:01.674Z,96.23
2022-11-21T09:09:05.705Z,96.29
2022-11-21T09:14:09.200Z,97.35
2022-11-21T09:19:11.504Z,97.25
2022-11-21T09:24:13.532Z,96.95
2022-11-21T09:29:17.010Z,96.70
2022-11-21T09:34:19.143Z,97.03
2022-11-21T09:39:21.236Z,97.52
2022-11-21T09:44:47.302Z,96.92
2022-11-21T09:49:55.914Z,96.30
2022-11-21T09:55:02.752Z,96.28
2022-11-21T10:00:16.224Z,95.82
2022-11-21T10:05:23.640Z,96.37
2022-11-21T10:10:38.632Z,96.77
2022-11-21T10:15:57.187Z,95.48
2022-11-21T10:21:09.414Z,95.75
2022-11-21T10:26:23.213Z,95.33
2022-11-21T10:31:29.512Z,95.08
2022-11-21T10:36:36.563Z,93.79
2022-11-21T10:41:45.054Z,93.44
2022-11-21T10:46:56.490Z,92.58
2022-11-21T10:52:05.909Z,92.04
2022-11-21T10:57:13.420Z,90.99
2022-11-21T11:02:25.453Z,91.01
2022-11-21T11:07:29.007Z,90.68
2022-11-21T11:12:32.029Z,90.52
2022-11-21T11:17:35.221Z,90.29
2022-11-21T11:22:36.847Z,91.07
2022-11-21T11:27:38.516Z,91.17
2022-11-21T11:32:42.048Z,90.39
2022-11-21T11:37:52.529Z,90.54
2022-11-21T11:43:12.308Z,90.82
2022-11-21T11:48:17.606Z,90.33
2022-11-21T11:53:21.463Z,90.86
2022-11-21T11:58:36.798Z,90.93
2022-11-21T12:03:52.035Z,90.29
2022-11-21T12:09:02.823Z,89.84
2022-11-21T12:14:15.112Z,89.59
2022-11-21T12:19:19.488Z,89.53
2022-11-21T12:24:21.738Z,88.39
2022-11-21T12:29:47.136Z,87.11
2022-11-21T12:35:16.065Z,87.25
2022-11-21T12:40:35.640Z,87.25
2022-11-21T12:45:39.921Z,87.08
2022-11-21T12:50:50.853Z,88.38
2022-11-21T12:56:00.603Z,87.97
2022-11-21T13:01:21.177Z,88.18
2022-11-21T13:06:27.836Z,88.07
2022-11-21T13:11:38.485Z,89.30
2022-11-21T13:16:45.266Z,89.71
2022-11-21T13:21:49.827Z,90.61
2022-11-21T13:26:54.331Z,89.69
2022-11-21T13:31:56.030Z,89.47
2022-11-21T13:36:59.703Z,89.27
2022-11-21T13:42:17.154Z,89.09
2022-11-21T13:48:00.648Z,88.65
2022-11-21T13:53:22.268Z,88.90
2022-11-21T13:58:37.964Z,88.55
2022-11-21T14:04:06.244Z,89.10
2022-11-21T14:09:34.010Z,89.43
2022-11-21T14:14:39.759Z,90.19
2022-11-21T14:19:42.715Z,88.84
2022-11-21T14:24:47.208Z,89.69
2022-11-21T14:29:49.439Z,89.96
2022-11-21T14:34:51.698Z,90.79
2022-11-21T14:39:57.094Z,91.04
2022-11-21T14:45:07.528Z,90.12
2022-11-21T14:50:26.162Z,91.04
2022-11-21T14:55:32.248Z,91.90
2022-11-21T15:06:05.161Z,93.15
2022-11-21T15:11:10.411Z,93.90
2022-11-21T15:16:13.414Z,94.45
2022-11-21T15:21:16.280Z,94.81
2022-11-21T15:26:32.334Z,96.08
2022-11-21T15:31:34.837Z,96.63
2022-11-21T15:36:37.081Z,97.48
2022-11-21T15:41:40.565Z,97.45
2022-11-21T15:46:42.529Z,97.95
2022-11-21T15:52:06.503Z,98.25
2022-11-21T15:57:16.468Z,98.42
2022-11-21T16:02:19.612Z,99.06
2022-11-21T16:07:22.455Z,99.79
2022-11-21T16:12:26.776Z,99.17
2022-11-21T16:17:28.888Z,99.64
2022-11-21T16:22:32.174Z,100.00
2022-11-21T16:27:35.922Z,100.00
2022-11-21T16:32:38.168Z,100.00
2022-11-21T16:37:40.490Z,100.00
2022-11-21T16:42:44.234Z,100.00
2022-11-21T16:47:48.906Z,100.00
2022-11-21T16:52:51.148Z,100.00
2022-11-21T16:57:55.102Z,100.00
2022-11-21T17:02:57.383Z,100.00
2022-11-21T17:07:59.624Z,100.00
2022-11-21T17:13:03.450Z,99.65
2022-11-21T17:18:05.627Z,99.90
2022-11-21T17:23:07.897Z,99.47
2022-11-21T17:28:11.499Z,99.10
2022-11-21T17:33:14.800Z,99.26
2022-11-21T17:38:17.383Z,99.17
2022-11-21T17:43:21.320Z,98.90
2022-11-21T17:48:24.362Z,98.83
2022-11-21T17:53:26.873Z,99.07
2022-11-21T17:58:31.371Z,98.83
2022-11-21T18:03:34.015Z,98.70
2022-11-21T18:08:37.009Z,98.95
2022-11-21T18:13:41.276Z,98.90
2022-11-21T18:18:43.485Z,98.85
2022-11-21T18:23:47.188Z,99.02
2022-11-21T18:29:07.232Z,98.99
2022-11-21T18:34:14.818Z,99.27
2022-11-21T18:39:16.803Z,97.55
2022-11-21T18:44:22.565Z,94.77
2022-11-21T18:49:24.577Z,91.43
2022-11-21T18:54:26.626Z,90.56
2022-11-21T18:59:30.465Z,90.56
2022-11-21T19:04:32.921Z,90.62
2022-11-21T19:09:35.438Z,90.89
2022-11-21T19:14:39.380Z,91.12
2022-11-21T19:19:41.240Z,89.94
2022-11-21T19:24:43.437Z,90.09
2022-11-21T19:29:47.061Z,91.69
2022-11-21T19:34:48.881Z,90.94
2022-11-21T19:39:50.637Z,90.89
2022-11-21T19:44:53.936Z,91.13
2022-11-21T19:49:55.881Z,91.03
2022-11-21T19:54:57.922Z,90.77
2022-11-21T20:00:01.306Z,90.60
2022-11-21T20:05:03.855Z,90.05
2022-11-21T20:10:06.717Z,89.07
2022-11-21T20:15:11.044Z,89.18
2022-11-21T20:20:12.982Z,89.75
2022-11-21T20:25:15.250Z,89.07
2022-11-21T20:30:18.643Z,89.42
2022-11-21T20:35:20.430Z,89.58
2022-11-21T20:40:22.471Z,89.83
2022-11-21T20:51:59.589Z,89.33
2022-11-21T20:56:16.118Z,89.56
2022-11-21T21:01:21.050Z,89.20
2022-11-21T21:06:27.398Z,89.30
2022-11-21T21:11:51.000Z,89.55
2022-11-21T21:16:53.912Z,88.63
2022-11-21T21:21:56.051Z,89.10
2022-11-21T21:26:58.265Z,89.45
2022-11-21T21:32:01.918Z,88.80
2022-11-21T21:37:04.010Z,88.61
2022-11-21T21:42:06.356Z,89.11
2022-11-21T21:47:09.427Z,89.15
2022-11-21T21:52:11.561Z,89.34
2022-11-21T21:57:13.258Z,90.10
2022-11-21T22:02:16.557Z,89.66
2022-11-21T22:07:18.476Z,89.87
2022-11-21T22:12:20.419Z,89.73
2022-11-21T22:17:23.772Z,89.48
2022-11-21T22:22:25.479Z,89.66
2022-11-21T22:27:27.623Z,89.65
2022-11-21T22:32:31.224Z,90.10
2022-11-21T22:37:33.346Z,89.99
2022-11-21T22:42:35.482Z,90.91
2022-11-21T22:47:41.371Z,91.07
2022-11-21T22:52:47.314Z,92.26
2022-11-21T22:57:49.203Z,92.56
2022-11-21T23:02:52.778Z,93.51
2022-11-21T23:07:54.855Z,93.68
2022-11-21T23:12:56.754Z,93.56
2022-11-21T23:18:00.478Z,93.08
2022-11-21T23:23:02.638Z,92.94
2022-11-21T23:28:04.759Z,92.80
2022-11-21T23:33:07.798Z,92.51
2022-11-21T23:38:09.595Z,92.49
2022-11-21T23:43:11.584Z,92.58
2022-11-21T23:48:14.668Z,92.70
2022-11-21T23:53:16.469Z,93.58
2022-11-21T23:58:18.413Z,93.49
